Flight Track Log - Related Links

Times and Time Zones

All times are in EDT time to prevent confusion due to time zone crossing. See the SWA286 flight status page for this flight to view local times or setup timezone preferences in your user account.

Time Position Orientation Groundspeed Altitude Reporting Facility
EDT Latitude Longitude Course Direction KTS MPH feet Rate Location/Type
Fri 08:13:13 PM 33.4375 -112.1258 272° West 205 236 4,700  Level Albuquerque Center
Fri 08:14:10 PM 33.5000 -112.1167 North 245 282 7,400 2,462 Climbing Phoenix TRACON
Fri 08:15:10 PM 33.5500 -112.0333 54° Northeast 291 335 9,500 2,000 Climbing Phoenix TRACON
Fri 08:16:04 PM 33.6000 -111.9667 48° Northeast 337 388 11,200 2,427 Climbing Phoenix TRACON
Fri 08:17:21 PM 33.6167 -111.8278 82° East 351 404 14,800 2,763 Climbing Albuquerque Center
Fri 08:18:23 PM 33.6392 -111.7114 77° East 362 417 17,600 2,537 Climbing Albuquerque Center
Fri 08:19:24 PM 33.6778 -111.5942 68° East 377 434 20,000 2,537 Climbing Albuquerque Center
Fri 08:20:26 PM 33.7247 -111.4464 69° East 396 456 22,800 2,177 Climbing Albuquerque Center
Fri 08:21:28 PM 33.7650 -111.3175 69° East 412 474 24,500 1,645 Climbing Albuquerque Center
Fri 08:22:30 PM 33.8078 -111.1833 69° East 429 494 26,200 1,500 Climbing Albuquerque Center
Fri 08:23:32 PM 33.8503 -111.0450 70° East 442 509 27,600 1,355 Climbing Albuquerque Center
Fri 08:24:34 PM 33.8950 -110.9017 69° East 454 522 29,000 1,258 Climbing Albuquerque Center
Fri 08:25:36 PM 33.9400 -110.7561 70° East 461 531 30,200 1,548 Climbing Albuquerque Center
Fri 08:26:38 PM 33.9911 -110.5772 71° East 470 541 32,200 1,742 Climbing Albuquerque Center
Fri 08:27:40 PM 34.0056 -110.4317 83° East 466 536 33,800 1,452 Climbing Albuquerque Center
Fri 08:28:42 PM 34.0217 -110.2792 83° East 459 528 35,200 1,355 Climbing Albuquerque Center
Fri 08:29:44 PM 34.0381 -110.1278 83° East 459 528 36,600 1,210 Climbing Albuquerque Center
Fri 08:30:46 PM 34.0547 -109.9622 83° East 455 524 37,700 1,065 Climbing Albuquerque Center
Fri 08:31:48 PM 34.0731 -109.7911 83° East 457 526 38,800 634 Climbing Albuquerque Center
Fri 08:32:49 PM 34.0867 -109.6456 84° East 460 529 39,000 98 Climbing Albuquerque Center
Fri 08:33:51 PM 34.1036 -109.4794 83° East 454 522 39,000  Level Albuquerque Center
Fri 08:34:53 PM 34.1172 -109.3439 83° East 452 520 39,000  Level Albuquerque Center
Fri 08:35:55 PM 34.1325 -109.1956 83° East 452 520 39,000  Level Albuquerque Center
Fri 08:36:57 PM 34.1508 -109.0292 82° East 449 517 39,000  Level Albuquerque Center
Fri 08:37:59 PM 34.2019 -108.9003 64° Northeast 448 516 39,000  Level Albuquerque Center
Fri 08:39:01 PM 34.2625 -108.7469 64° Northeast 448 516 39,000  Level Albuquerque Center
Fri 08:40:02 PM 34.3147 -108.6214 63° Northeast 448 516 39,000  Level Albuquerque Center
Fri 08:41:04 PM 34.3750 -108.4703 64° Northeast 448 516 39,000  Level Albuquerque Center
Fri 08:42:06 PM 34.4211 -108.3550 64° Northeast 444 511 39,000  Level Albuquerque Center
Fri 08:43:08 PM 34.4861 -108.1883 65° Northeast 446 513 39,000  Level Albuquerque Center
Fri 08:44:10 PM 34.5400 -108.0544 64° Northeast 453 521 39,000  Level Albuquerque Center
Fri 08:45:11 PM 34.5942 -107.9192 64° Northeast 450 518 39,000  Level Albuquerque Center
Fri 08:46:13 PM 34.6475 -107.7808 65° Northeast 450 518 39,000  Level Albuquerque Center
Fri 08:47:15 PM 34.7014 -107.6458 64° Northeast 450 518 39,000  Level Albuquerque Center
Fri 08:48:17 PM 34.7606 -107.4917 65° Northeast 450 518 39,000  Level Albuquerque Center
Fri 08:49:19 PM 34.8181 -107.3442 65° Northeast 449 517 39,000  Level Albuquerque Center
Fri 08:50:20 PM 34.8706 -107.2078 65° Northeast 449 517 39,000  Level Albuquerque Center
Fri 08:51:22 PM 34.9228 -107.0719 65° Northeast 447 514 39,000  Level Albuquerque Center
Fri 08:52:24 PM 34.9783 -106.9253 65° Northeast 446 513 39,000  Level Albuquerque Center
Fri 08:53:25 PM 35.0317 -106.7842 65° Northeast 445 512 39,000  Level Albuquerque Center
Fri 08:54:27 PM 35.0839 -106.6478 65° Northeast 445 512 39,000  Level Albuquerque Center
Fri 08:55:29 PM 35.1358 -106.5108 65° Northeast 451 519 39,000  Level Albuquerque Center
Fri 08:56:31 PM 35.1861 -106.3744 66° East 446 513 39,000  Level Albuquerque Center
Fri 08:57:33 PM 35.2367 -106.2369 66° East 446 513 39,000  Level Albuquerque Center
Fri 08:58:35 PM 35.2872 -106.0992 66° East 446 513 39,000  Level Albuquerque Center
Fri 08:59:36 PM 35.3481 -105.9347 66° East 446 513 39,000  Level Albuquerque Center
Fri 09:00:38 PM 35.3981 -105.7975 66° East 446 513 39,000  Level Albuquerque Center
Fri 09:01:40 PM 35.4489 -105.6603 66° East 446 513 39,000  Level Albuquerque Center
Fri 09:02:42 PM 35.5047 -105.5100 65° Northeast 446 513 39,000  Level Albuquerque Center
Fri 09:03:44 PM 35.5561 -105.3700 66° East 445 512 39,000  Level Albuquerque Center
Fri 09:04:45 PM 35.6083 -105.2306 65° Northeast 445 512 39,000  Level Albuquerque Center
Fri 09:05:47 PM 35.6589 -105.0900 66° East 445 512 39,000  Level Albuquerque Center
Fri 09:06:49 PM 35.7089 -104.9481 67° East 445 512 39,000  Level Albuquerque Center
Fri 09:07:51 PM 35.7594 -104.8086 66° East 445 512 39,000  Level Albuquerque Center
Fri 09:08:52 PM 35.8094 -104.6669 66° East 445 512 39,000  Level Albuquerque Center
Fri 09:09:54 PM 35.8597 -104.5250 66° East 444 511 39,000  Level Albuquerque Center
Fri 09:10:56 PM 35.9178 -104.3622 66° East 439 505 39,000  Level Albuquerque Center
Fri 09:11:57 PM 35.9678 -104.2203 66° East 441 507 39,000  Level Albuquerque Center
Fri 09:12:59 PM 36.0178 -104.0794 66° East 441 507 39,000  Level Albuquerque Center
Fri 09:14:01 PM 36.0661 -103.9394 67° East 441 507 39,000  Level Albuquerque Center
Fri 09:15:02 PM 36.1147 -103.7975 67° East 441 507 39,000  Level Albuquerque Center
Fri 09:16:04 PM 36.1633 -103.6564 67° East 441 507 39,000  Level Albuquerque Center
Fri 09:17:06 PM 36.2125 -103.5144 67° East 441 507 39,000  Level Albuquerque Center
Fri 09:18:07 PM 36.2603 -103.3711 68° East 442 509 39,000  Level Albuquerque Center
Fri 09:19:09 PM 36.3100 -103.2292 66° East 443 510 39,000  Level Albuquerque Center
Fri 09:20:11 PM 36.3567 -103.0850 68° East 444 511 39,000  Level Albuquerque Center
Fri 09:21:12 PM 36.4058 -102.9419 67° East 444 511 39,000  Level Albuquerque Center
Fri 09:22:14 PM 36.4550 -102.7928 68° East 447 514 39,000  Level Albuquerque Center
Fri 09:23:16 PM 36.5022 -102.6489 68° East 447 514 39,000  Level Albuquerque Center
Fri 09:24:17 PM 36.5500 -102.5050 68° East 447 514 39,000  Level Albuquerque Center
Fri 09:25:19 PM 36.6075 -102.3331 67° East 448 516 39,000  Level Albuquerque Center
Fri 09:26:21 PM 36.6497 -102.2031 68° East 448 516 39,000  Level Albuquerque Center
Fri 09:27:22 PM 36.7025 -102.0433 68° East 448 516 39,000  Level Albuquerque Center
Fri 09:28:24 PM 36.7458 -101.9058 68° East 448 516 39,000  Level Albuquerque Center
Fri 09:29:26 PM 36.7983 -101.7467 68° East 447 514 39,000  Level Albuquerque Center
Fri 09:30:27 PM 36.8425 -101.6083 68° East 447 514 39,000  Level Albuquerque Center
Fri 09:31:29 PM 36.8942 -101.4464 68° East 448 516 39,000  Level Albuquerque Center
Fri 09:32:30 PM 36.9386 -101.3064 68° East 450 518 39,000  Level Albuquerque Center
Fri 09:33:32 PM 36.9819 -101.1644 69° East 453 521 39,000  Level Albuquerque Center
Fri 09:34:34 PM 37.0322 -101.0022 69° East 454 522 39,000  Level Albuquerque Center
Fri 09:35:58 PM 37.0842 -100.7881 73° East 452 520 39,000  Level Kansas Center
Fri 09:37:01 PM 37.1161 -100.6444 74° East 452 520 39,000  Level Kansas Center
Fri 09:38:02 PM 37.1528 -100.4775 75° East 452 520 39,000  Level Kansas Center
Fri 09:39:06 PM 37.1847 -100.3325 75° East 452 520 39,000  Level Kansas Center
Fri 09:40:07 PM 37.2214 -100.1633 75° East 452 520 39,000  Level Kansas Center
Fri 09:41:09 PM 37.2519 -100.0178 75° East 452 520 39,000  Level Kansas Center
Fri 09:42:11 PM 37.2886 -99.8492 75° East 452 520 39,000  Level Kansas Center
Fri 09:43:11 PM 37.3192 -99.7033 75° East 452 520 39,000  Level Kansas Center
Fri 09:44:13 PM 37.3500 -99.5583 75° East 452 520 39,000  Level Kansas Center
Fri 09:45:14 PM 37.3853 -99.3972 75° East 453 521 39,000  Level Kansas Center
Fri 09:46:19 PM 37.4181 -99.2425 75° East 455 524 39,000  Level Kansas Center
Fri 09:47:20 PM 37.4483 -99.0892 76° East 455 524 39,000  Level Kansas Center
Fri 09:48:22 PM 37.4858 -98.9006 76° East 462 532 39,000  Level Kansas Center
Fri 09:49:23 PM 37.5175 -98.7461 75° East 461 531 39,000  Level Kansas Center
Fri 09:50:23 PM 37.5486 -98.5900 76° East 461 531 39,000  Level Kansas Center
Fri 09:51:27 PM 37.5789 -98.4361 76° East 460 529 39,000  Level Kansas Center
Fri 09:52:28 PM 37.6100 -98.2800 76° East 460 529 39,000  Level Kansas Center
Fri 09:53:31 PM 37.6411 -98.1233 76° East 460 529 39,000  Level Kansas Center
Fri 09:54:31 PM 37.6761 -97.9353 77° East 460 529 39,000  Level Kansas Center
Fri 09:55:32 PM 37.7053 -97.7769 77° East 460 529 39,000  Level Kansas Center
Fri 09:56:35 PM 37.7350 -97.6183 77° East 461 531 39,000  Level Kansas Center
Fri 09:57:36 PM 37.7858 -97.4731 66° East 455 524 39,000  Level Kansas Center
Fri 09:58:38 PM 37.8367 -97.3431 64° Northeast 455 524 39,000  Level Kansas Center
Fri 09:59:39 PM 37.9028 -97.1708 64° Northeast 455 524 39,000  Level Kansas Center
Fri 10:00:42 PM 37.9578 -97.0289 64° Northeast 455 524 39,000  Level Kansas Center
Fri 10:01:43 PM 38.0122 -96.8850 64° Northeast 455 524 39,000  Level Kansas Center
Fri 10:02:45 PM 38.0658 -96.7414 65° Northeast 453 521 39,000 -98 Level Kansas Center
Fri 10:03:46 PM 38.1208 -96.5967 64° Northeast 454 522 38,800 -1,279 Descending Kansas Center
Fri 10:04:47 PM 38.1753 -96.4525 64° Northeast 454 522 36,400 -1,869 Descending Kansas Center
Fri 10:05:48 PM 38.2328 -96.2956 65° Northeast 451 519 35,000 -672 Descending Kansas Center
Fri 10:06:52 PM 38.2864 -96.1519 65° Northeast 452 520 35,000 -1,619 Level Kansas Center
Fri 10:07:54 PM 38.3628 -96.0386 49° Northeast 424 488 31,600 -3,122 Descending Kansas Center
Fri 10:08:55 PM 38.4481 -95.9214 47° Northeast 449 517 28,600 -2,902 Descending Kansas Center
Fri 10:09:56 PM 38.5317 -95.7975 49° Northeast 458 527 25,700 -2,803 Descending Kansas Center
Fri 10:10:57 PM 38.6322 -95.6639 46° Northeast 442 509 22,900 -2,508 Descending Kansas Center
Fri 10:11:58 PM 38.7106 -95.5544 47° Northeast 427 491 20,600 -2,129 Descending Kansas Center
Fri 10:13:01 PM 38.7861 -95.4469 48° Northeast 412 474 18,500 -2,064 Descending Kansas Center
Fri 10:14:03 PM 38.8575 -95.3469 47° Northeast 387 445 16,300 -2,000 Descending Kansas Center
Fri 10:16:16 PM 39.0167 -95.1167 48° Northeast 361 415 12,000 -1,492 Descending Kansas TRACON
Fri 10:17:16 PM 39.0833 -95.0333 44° Northeast 316 364 11,500 -950 Descending Kansas TRACON
Fri 10:18:16 PM 39.1333 -94.9500 52° Northeast 297 342 10,100 -1,434 Descending Kansas TRACON
Fri 10:19:09 PM 39.1797 -94.8883 46° Northeast 301 346 8,800 -1,565 Descending Kansas Center
Fri 10:20:11 PM 39.2506 -94.8436 26° Northeast 291 335 7,100 -871 Descending Kansas Center
Fri 10:21:13 PM 39.3169 -94.8103 21° North 252 290 7,000 -390 Descending Kansas Center
Fri 10:22:14 PM 39.3714 -94.7936 13° North 204 235 6,300 -984 Descending Kansas Center
Fri 10:23:15 PM 39.4356 -94.7742 13° North 202 232 5,000 -1,122 Descending Kansas Center
Fri 10:24:17 PM 39.4889 -94.7525 17° North 207 238 4,000 -829 Descending Kansas Center
Fri 10:25:18 PM 39.4944 -94.6739 85° East 223 257 3,300 -492 Descending Kansas Center
Fri 10:26:19 PM 39.4686 -94.6528 148° Southeast 150 173 3,000 -148 Descending Kansas Center
Fri 10:27:20 PM 39.4306 -94.6642 193° South 139 160 3,000 -197 Level Kansas Center
Fri 10:28:21 PM 39.3917 -94.6764 194° South 141 162 2,600 -480 Descending Kansas Center
Fri 10:29:25 PM 39.3558 -94.6867 193° South 133 153 2,000 -576 Descending Kansas Center
Fri 10:30:26 PM 39.3242 -94.6961 193° South 118 136 1,400 -590 Descending Kansas Center

Login

Don't have an account? Register now (free) for customized features, flight alerts, and more!